createdAt,value
2018-09-05T00:01:25.131Z,32.05
2018-09-05T00:03:53.201Z,31.80
2018-09-05T00:06:21.530Z,34.05
2018-09-05T00:08:49.598Z,31.30
2018-09-05T00:11:17.710Z,35.17
2018-09-05T00:13:45.796Z,34.38
2018-09-05T00:16:13.872Z,35.05
2018-09-05T00:18:42.017Z,40.60
2018-09-05T00:21:10.094Z,37.15
2018-09-05T00:23:38.181Z,35.10
2018-09-05T00:26:06.253Z,33.60
2018-09-05T00:28:34.334Z,32.85
2018-09-05T00:31:02.706Z,33.10
2018-09-05T00:33:30.770Z,31.42
2018-09-05T00:35:58.835Z,31.55
2018-09-05T00:38:26.907Z,32.98
2018-09-05T00:40:54.980Z,33.98
2018-09-05T00:43:23.322Z,32.45
2018-09-05T00:45:51.431Z,43.20
2018-09-05T00:48:19.495Z,34.50
2018-09-05T00:50:47.554Z,30.48
2018-09-05T00:53:15.626Z,35.83
2018-09-05T00:55:44.063Z,31.30
2018-09-05T00:58:12.146Z,31.62
2018-09-05T01:00:40.275Z,32.10
2018-09-05T01:03:08.379Z,32.88
2018-09-05T01:05:36.471Z,31.80
2018-09-05T01:08:33.411Z,34.03
2018-09-05T01:11:01.511Z,34.60
2018-09-05T01:13:29.647Z,30.40
2018-09-05T01:15:57.755Z,35.08
2018-09-05T01:18:25.878Z,35.28
2018-09-05T01:20:54.007Z,37.13
2018-09-05T01:23:22.066Z,36.03
2018-09-05T01:25:50.188Z,35.38
2018-09-05T01:28:18.562Z,30.82
2018-09-05T01:30:46.623Z,33.00
2018-09-05T01:33:14.951Z,32.65
2018-09-05T01:35:43.030Z,30.77
2018-09-05T01:38:11.098Z,32.60
2018-09-05T01:40:39.174Z,32.40
2018-09-05T01:43:07.336Z,32.78
2018-09-05T01:45:35.675Z,40.10
2018-09-05T01:48:03.744Z,34.35
2018-09-05T01:50:37.710Z,36.13
2018-09-05T01:53:05.779Z,32.23
2018-09-05T01:55:33.882Z,30.00
2018-09-05T01:58:01.954Z,31.05
2018-09-05T02:00:32.950Z,34.55
2018-09-05T02:03:01.307Z,29.75
2018-09-05T02:05:29.435Z,28.00
2018-09-05T02:07:57.534Z,33.10
2018-09-05T02:10:25.659Z,31.02
2018-09-05T02:12:53.770Z,37.45
2018-09-05T02:15:22.199Z,32.58
2018-09-05T02:17:50.275Z,28.57
2018-09-05T02:20:18.353Z,29.05
2018-09-05T02:22:46.436Z,31.52
2018-09-05T02:25:14.518Z,31.55
2018-09-05T02:27:42.998Z,29.72
2018-09-05T02:30:11.103Z,31.33
2018-09-05T02:32:39.200Z,30.25
2018-09-05T02:35:07.336Z,32.03
2018-09-05T02:37:35.410Z,32.50
2018-09-05T02:40:03.552Z,32.75
2018-09-05T02:42:31.658Z,31.15
2018-09-05T02:44:59.762Z,32.10
2018-09-05T02:47:27.870Z,30.62
2018-09-05T02:49:55.969Z,31.33
2018-09-05T02:52:24.291Z,34.57
2018-09-05T02:54:52.393Z,34.73
2018-09-05T02:57:20.470Z,31.25
2018-09-05T02:59:48.546Z,35.13
2018-09-05T03:02:16.638Z,30.12
2018-09-05T03:04:45.071Z,33.08
2018-09-05T03:07:13.163Z,28.67
2018-09-05T03:09:41.251Z,31.82
2018-09-05T03:12:09.346Z,33.50
2018-09-05T03:14:37.540Z,31.80
2018-09-05T03:17:05.933Z,32.80
2018-09-05T03:19:34.007Z,31.73
2018-09-05T03:22:02.098Z,32.88
2018-09-05T03:24:30.198Z,33.02
2018-09-05T03:26:58.294Z,35.08
2018-09-05T03:29:26.722Z,34.13
2018-09-05T03:31:54.796Z,32.65
2018-09-05T03:34:22.871Z,30.43
2018-09-05T03:36:50.956Z,29.50
2018-09-05T03:39:19.058Z,33.75
2018-09-05T03:41:47.479Z,30.12
2018-09-05T03:44:15.585Z,30.15
2018-09-05T03:46:43.691Z,32.13
2018-09-05T03:49:11.887Z,31.93
2018-09-05T03:51:40.109Z,29.82
2018-09-05T03:54:08.549Z,34.33
2018-09-05T03:56:36.665Z,35.38
2018-09-05T03:59:04.786Z,27.60
2018-09-05T04:01:32.893Z,38.85
2018-09-05T04:04:00.974Z,28.40
2018-09-05T04:06:29.074Z,32.25
2018-09-05T04:08:57.196Z,34.15
2018-09-05T04:11:25.314Z,30.08
2018-09-05T04:13:53.393Z,32.67
2018-09-05T04:16:21.491Z,34.10
2018-09-05T04:18:49.631Z,33.42
2018-09-05T04:21:17.712Z,32.63
2018-09-05T04:23:48.638Z,31.27
2018-09-05T04:26:18.004Z,33.80
2018-09-05T04:28:46.105Z,40.20
2018-09-05T04:31:14.994Z,32.00
2018-09-05T04:33:43.578Z,34.13
2018-09-05T04:36:13.268Z,40.38
2018-09-05T04:38:42.163Z,32.88
2018-09-05T04:41:10.267Z,32.35
2018-09-05T04:43:38.405Z,33.48
2018-09-05T04:46:06.674Z,34.83
2018-09-05T04:48:34.822Z,36.60
2018-09-05T04:51:03.015Z,36.98
2018-09-05T04:53:31.187Z,29.48
2018-09-05T04:55:59.278Z,31.55
2018-09-05T04:58:27.442Z,35.90
2018-09-05T05:00:55.715Z,33.38
2018-09-05T05:03:23.882Z,32.55
2018-09-05T05:05:52.016Z,33.60
2018-09-05T05:08:20.064Z,34.80
2018-09-05T05:10:48.825Z,34.50
2018-09-05T05:13:17.036Z,36.28
2018-09-05T05:15:45.134Z,34.43
2018-09-05T05:18:13.230Z,30.15
2018-09-05T05:20:41.359Z,29.52
2018-09-05T05:23:09.434Z,31.87
2018-09-05T05:25:37.531Z,34.23
2018-09-05T05:28:05.764Z,34.88
2018-09-05T05:30:33.891Z,33.13
2018-09-05T05:33:01.946Z,37.03
2018-09-05T05:35:30.025Z,35.33
2018-09-05T05:37:58.086Z,34.05
2018-09-05T05:40:26.294Z,35.35
2018-09-05T05:42:54.382Z,34.95
2018-09-05T05:45:22.472Z,45.30
2018-09-05T05:47:50.555Z,50.88
2018-09-05T05:50:18.630Z,36.23
2018-09-05T05:52:46.715Z,42.80
2018-09-05T05:55:14.886Z,42.80
2018-09-05T05:57:43.347Z,41.00
2018-09-05T06:00:11.465Z,40.48
2018-09-05T06:02:39.575Z,43.40
2018-09-05T06:05:07.687Z,39.05
2018-09-05T06:07:35.837Z,50.38
2018-09-05T06:10:03.934Z,44.63
2018-09-05T06:12:32.082Z,41.58
2018-09-05T06:15:00.171Z,50.00
2018-09-05T06:17:28.298Z,46.25
2018-09-05T06:19:56.327Z,40.98
2018-09-05T06:22:24.767Z,50.60
2018-09-05T06:24:52.888Z,44.23
2018-09-05T06:27:20.987Z,41.88
2018-09-05T06:29:49.080Z,46.88
2018-09-05T06:32:17.175Z,45.15
2018-09-05T06:34:45.247Z,51.02
2018-09-05T06:37:13.338Z,47.33
2018-09-05T06:39:41.781Z,46.70
2018-09-05T06:42:09.854Z,45.08
2018-09-05T06:44:37.943Z,46.93
2018-09-05T06:47:06.015Z,49.33
2018-09-05T06:49:34.652Z,45.25
2018-09-05T06:52:02.743Z,52.60
2018-09-05T06:54:30.824Z,46.10
2018-09-05T06:56:58.890Z,57.27
2018-09-05T06:59:27.050Z,41.55
2018-09-05T07:01:55.152Z,47.85
2018-09-05T07:04:23.224Z,46.18
2018-09-05T07:06:51.355Z,40.17
2018-09-05T07:09:19.566Z,43.58
2018-09-05T07:11:47.673Z,38.53
2018-09-05T07:14:15.862Z,40.88
2018-09-05T07:16:43.889Z,37.35
2018-09-05T07:19:12.647Z,34.78
2018-09-05T07:21:40.742Z,34.13
2018-09-05T07:24:08.820Z,34.45
2018-09-05T07:26:37.647Z,33.10
2018-09-05T07:29:06.059Z,30.77
2018-09-05T07:31:34.173Z,37.40
2018-09-05T07:34:02.256Z,29.40
2018-09-05T07:36:30.338Z,32.55
2018-09-05T07:38:58.818Z,30.27
2018-09-05T07:41:26.918Z,27.93
2018-09-05T07:43:54.994Z,30.62
2018-09-05T07:46:23.101Z,29.20
2018-09-05T07:48:51.198Z,29.72
2018-09-05T07:51:20.452Z,29.65
2018-09-05T07:53:48.678Z,30.25
2018-09-05T07:56:16.718Z,36.45
2018-09-05T07:58:44.796Z,29.60
2018-09-05T08:01:13.076Z,36.60
2018-09-05T08:03:41.505Z,37.30
2018-09-05T08:06:09.615Z,34.30
2018-09-05T08:08:37.731Z,30.97
2018-09-05T08:11:05.960Z,35.10
2018-09-05T08:13:34.110Z,38.00
2018-09-05T08:16:02.485Z,33.95
2018-09-05T08:18:30.578Z,32.48
2018-09-05T08:20:58.654Z,37.15
2018-09-05T08:23:26.759Z,34.13
2018-09-05T08:25:54.982Z,38.80
2018-09-05T08:28:23.074Z,39.63
2018-09-05T08:30:51.204Z,38.92
2018-09-05T08:33:19.573Z,35.83
2018-09-05T08:35:47.958Z,34.15
2018-09-05T08:38:15.864Z,26.02
2018-09-05T08:40:43.864Z,26.50
2018-09-05T08:43:11.947Z,24.07
2018-09-05T08:45:40.279Z,23.25
2018-09-05T08:48:08.237Z,27.77
2018-09-05T08:50:36.244Z,24.20
2018-09-05T08:53:04.386Z,26.27
2018-09-05T08:55:32.451Z,27.82
2018-09-05T08:58:00.583Z,24.75
2018-09-05T09:00:28.654Z,26.23
2018-09-05T09:02:56.783Z,27.13
2018-09-05T09:05:24.882Z,25.70
2018-09-05T09:07:52.979Z,26.05
2018-09-05T09:10:21.127Z,26.75
2018-09-05T09:12:49.195Z,25.37
2018-09-05T09:15:17.274Z,25.55
2018-09-05T09:17:45.362Z,31.17
2018-09-05T09:20:13.431Z,28.25
2018-09-05T09:22:41.515Z,24.55
2018-09-05T09:25:09.590Z,25.20
2018-09-05T09:27:37.719Z,24.98
2018-09-05T09:30:05.958Z,27.27
2018-09-05T09:32:34.041Z,26.77
2018-09-05T09:35:02.123Z,27.62
2018-09-05T09:37:30.225Z,28.27
2018-09-05T09:39:58.326Z,24.92
2018-09-05T09:42:26.380Z,23.87
2018-09-05T09:44:54.463Z,29.15
2018-09-05T09:47:22.518Z,27.05
2018-09-05T09:49:50.594Z,31.57
2018-09-05T09:52:20.926Z,26.85
2018-09-05T09:54:50.335Z,24.20
2018-09-05T09:57:18.460Z,23.95
2018-09-05T09:59:46.528Z,23.47
2018-09-05T10:02:20.094Z,21.07
2018-09-05T10:04:53.683Z,26.48
2018-09-05T10:07:27.174Z,22.10
2018-09-05T10:09:59.668Z,24.50
2018-09-05T10:12:33.112Z,23.55
2018-09-05T10:15:06.457Z,24.98
2018-09-05T10:17:36.774Z,24.98
2018-09-05T10:20:05.090Z,24.60
2018-09-05T10:22:33.357Z,27.22
2018-09-05T10:25:01.458Z,26.07
2018-09-05T10:27:29.791Z,24.95
2018-09-05T10:29:58.445Z,30.85
2018-09-05T10:32:26.743Z,21.75
2018-09-05T10:34:55.637Z,21.90
2018-09-05T10:37:23.794Z,21.87
2018-09-05T10:39:51.891Z,25.32
2018-09-05T10:42:20.020Z,24.90
2018-09-05T10:44:48.093Z,22.07
2018-09-05T10:47:16.178Z,22.73
2018-09-05T10:49:44.250Z,20.80
2018-09-05T10:52:12.327Z,21.52
2018-09-05T10:54:40.418Z,21.87
2018-09-05T10:57:08.512Z,22.13
2018-09-05T10:59:36.626Z,18.37
2018-09-05T11:02:04.699Z,23.62
2018-09-05T11:04:32.778Z,21.37
2018-09-05T11:07:00.858Z,17.75
2018-09-05T11:09:28.957Z,16.42
2018-09-05T11:11:57.075Z,17.73
2018-09-05T11:14:25.163Z,20.08
2018-09-05T11:16:53.326Z,14.98
2018-09-05T11:19:21.506Z,16.07
2018-09-05T11:21:49.670Z,13.93
2018-09-05T11:24:17.755Z,16.10
2018-09-05T11:26:45.843Z,14.30
2018-09-05T11:29:13.915Z,16.62
2018-09-05T11:31:41.990Z,22.27
2018-09-05T11:34:10.073Z,13.25
2018-09-05T11:36:38.194Z,20.77
2018-09-05T11:39:08.728Z,14.47
2018-09-05T11:41:36.935Z,14.38
2018-09-05T11:44:05.050Z,13.28
2018-09-05T11:46:33.165Z,13.38
2018-09-05T11:49:01.251Z,14.05
2018-09-05T11:51:29.322Z,14.80
2018-09-05T11:53:57.389Z,14.35
2018-09-05T11:56:25.552Z,13.58
2018-09-05T11:58:53.610Z,15.28
2018-09-05T12:01:21.694Z,13.78
2018-09-05T12:03:49.827Z,15.35
2018-09-05T12:06:17.897Z,14.73
2018-09-05T12:08:45.971Z,19.45
2018-09-05T12:11:14.048Z,14.53
2018-09-05T12:13:42.132Z,16.82
2018-09-05T12:16:10.216Z,18.02
2018-09-05T12:18:38.300Z,14.55
2018-09-05T12:21:06.543Z,17.10
2018-09-05T12:23:34.623Z,16.82
2018-09-05T12:26:02.718Z,16.67
2018-09-05T12:28:30.811Z,17.52
2018-09-05T12:30:58.882Z,16.82
2018-09-05T12:33:26.978Z,16.20
2018-09-05T12:35:55.050Z,16.55
2018-09-05T12:38:23.246Z,15.68
2018-09-05T12:40:51.239Z,14.28
2018-09-05T12:43:19.311Z,16.90
2018-09-05T12:45:47.371Z,19.70
2018-09-05T12:48:15.447Z,22.48
2018-09-05T12:50:43.527Z,18.15
2018-09-05T12:53:11.601Z,18.17
2018-09-05T12:55:39.671Z,16.90
2018-09-05T12:58:07.768Z,14.05
2018-09-05T13:00:35.856Z,14.95
2018-09-05T13:03:03.938Z,14.28
2018-09-05T13:05:32.091Z,16.77
2018-09-05T13:08:00.171Z,15.30
2018-09-05T13:10:28.246Z,16.87
2018-09-05T13:12:56.319Z,17.07
2018-09-05T13:15:24.415Z,21.12
2018-09-05T13:17:52.503Z,17.57
2018-09-05T13:20:20.587Z,18.98
2018-09-05T13:22:48.732Z,16.73
2018-09-05T13:25:16.746Z,16.12
2018-09-05T13:27:44.843Z,14.58
2018-09-05T13:30:12.963Z,13.78
2018-09-05T13:32:41.071Z,13.95
2018-09-05T13:35:09.476Z,13.65
2018-09-05T13:37:37.597Z,17.60
2018-09-05T13:40:05.667Z,14.43
2018-09-05T13:42:33.789Z,14.83
2018-09-05T13:45:01.896Z,14.70
2018-09-05T13:47:29.968Z,15.85
2018-09-05T13:49:58.088Z,15.03
2018-09-05T13:52:26.183Z,14.20
2018-09-05T13:54:54.275Z,16.20
2018-09-05T13:57:22.347Z,14.15
2018-09-05T13:59:50.432Z,17.48
2018-09-05T14:02:18.507Z,17.65
2018-09-05T14:04:46.669Z,16.27
2018-09-05T14:07:14.743Z,16.52
2018-09-05T14:09:42.995Z,16.55
2018-09-05T14:12:11.079Z,18.35
2018-09-05T14:14:39.156Z,17.12
2018-09-05T14:17:07.230Z,14.33
2018-09-05T14:19:35.453Z,15.80
2018-09-05T14:22:03.510Z,16.57
2018-09-05T14:24:31.626Z,16.97
2018-09-05T14:26:59.896Z,15.32
2018-09-05T14:29:27.966Z,21.42
2018-09-05T14:31:56.043Z,14.07
2018-09-05T14:34:24.158Z,16.07
2018-09-05T14:36:52.352Z,15.90
2018-09-05T14:39:20.466Z,14.63
2018-09-05T14:41:48.794Z,15.90
2018-09-05T14:44:16.914Z,19.15
2018-09-05T14:46:44.994Z,21.93
2018-09-05T14:49:13.088Z,18.87
2018-09-05T14:51:42.174Z,18.50
2018-09-05T14:54:10.328Z,21.65
2018-09-05T14:56:38.347Z,17.50
2018-09-05T14:59:06.576Z,21.73
2018-09-05T15:01:34.664Z,18.07
2018-09-05T15:04:02.722Z,18.90
2018-09-05T15:06:30.887Z,23.07
2018-09-05T15:08:58.928Z,26.50
2018-09-05T15:11:27.079Z,22.40
2018-09-05T15:13:55.182Z,23.85
2018-09-05T15:16:23.275Z,23.00
2018-09-05T15:18:51.631Z,24.15
2018-09-05T15:21:19.723Z,17.25
2018-09-05T15:23:47.805Z,26.05
2018-09-05T15:26:15.873Z,22.13
2018-09-05T15:28:43.981Z,20.72
2018-09-05T15:31:12.061Z,24.70
2018-09-05T15:33:40.148Z,22.37
2018-09-05T15:36:08.258Z,19.32
2018-09-05T15:38:36.384Z,24.77
2018-09-05T15:41:04.485Z,21.02
2018-09-05T15:43:32.566Z,21.48
2018-09-05T15:46:00.674Z,16.60
2018-09-05T15:48:28.767Z,22.77
2018-09-05T15:50:56.836Z,23.47
2018-09-05T15:53:24.908Z,19.77
2018-09-05T15:55:53.021Z,20.20
2018-09-05T15:58:21.153Z,20.95
2018-09-05T16:00:49.231Z,19.23
2018-09-05T16:03:17.326Z,21.30
2018-09-05T16:05:45.438Z,23.57
2018-09-05T16:08:13.632Z,19.42
2018-09-05T16:10:41.784Z,23.12
2018-09-05T16:13:09.935Z,23.22
2018-09-05T16:15:38.266Z,17.92
2018-09-05T16:18:06.145Z,19.25
2018-09-05T16:20:34.442Z,18.17
2018-09-05T16:23:02.562Z,19.92
2018-09-05T16:25:30.883Z,19.90
2018-09-05T16:27:59.055Z,24.43
2018-09-05T16:30:27.188Z,20.00
2018-09-05T16:32:55.339Z,20.00
2018-09-05T16:35:23.472Z,20.48
2018-09-05T16:37:51.558Z,22.65
2018-09-05T16:40:19.667Z,18.65
2018-09-05T16:42:47.735Z,18.20
2018-09-05T16:45:15.819Z,18.80
2018-09-05T16:47:43.986Z,24.67
2018-09-05T16:50:12.102Z,17.30
2018-09-05T16:52:40.245Z,22.50
2018-09-05T16:55:08.332Z,20.57
2018-09-05T16:57:36.425Z,19.02
2018-09-05T17:00:04.875Z,21.33
2018-09-05T17:02:32.946Z,21.52
2018-09-05T17:05:01.017Z,15.58
2018-09-05T17:07:29.183Z,20.15
2018-09-05T17:09:57.296Z,20.35
2018-09-05T17:12:25.457Z,20.08
2018-09-05T17:14:53.582Z,16.42
2018-09-05T17:17:21.671Z,18.57
2018-09-05T17:19:49.861Z,17.40
2018-09-05T17:22:17.953Z,19.30
2018-09-05T17:24:46.249Z,19.17
2018-09-05T17:27:14.796Z,15.90
2018-09-05T17:29:42.963Z,16.00
2018-09-05T17:32:11.055Z,16.82
2018-09-05T17:34:39.134Z,18.42
2018-09-05T17:37:07.247Z,19.57
2018-09-05T17:39:35.355Z,16.35
2018-09-05T17:42:03.480Z,20.62
2018-09-05T17:44:31.626Z,19.23
2018-09-05T17:47:00.062Z,17.50
2018-09-05T17:49:28.203Z,18.60
2018-09-05T17:51:56.315Z,19.42
2018-09-05T17:54:24.423Z,15.60
2018-09-05T17:56:52.563Z,18.32
2018-09-05T17:59:20.691Z,15.95
2018-09-05T18:01:48.948Z,18.57
2018-09-05T18:04:17.045Z,20.37
2018-09-05T18:06:45.295Z,20.85
2018-09-05T18:09:13.458Z,19.57
2018-09-05T18:11:41.769Z,20.20
2018-09-05T18:14:10.027Z,24.93
2018-09-05T18:16:38.164Z,21.55
2018-09-05T18:19:06.261Z,20.50
2018-09-05T18:21:34.348Z,18.62
2018-09-05T18:24:02.442Z,20.52
2018-09-05T18:26:30.762Z,21.37
2018-09-05T18:28:59.016Z,16.42
2018-09-05T18:31:27.161Z,19.17
2018-09-05T18:33:55.383Z,23.42
2018-09-05T18:36:23.408Z,19.73
2018-09-05T18:38:51.534Z,22.02
2018-09-05T18:41:19.618Z,20.97
2018-09-05T18:43:47.702Z,16.00
2018-09-05T18:46:15.848Z,18.70
2018-09-05T18:48:44.007Z,21.17
2018-09-05T18:51:12.096Z,16.75
2018-09-05T18:53:40.178Z,19.67
2018-09-05T18:56:08.294Z,19.17
2018-09-05T18:58:36.363Z,22.42
2018-09-05T19:01:04.562Z,21.30
2018-09-05T19:03:32.643Z,17.85
2018-09-05T19:06:00.740Z,16.90
2018-09-05T19:08:28.898Z,18.35
2018-09-05T19:10:56.940Z,20.62
2018-09-05T19:13:25.047Z,18.60
2018-09-05T19:15:53.147Z,19.15
2018-09-05T19:18:21.271Z,25.30
2018-09-05T19:20:49.335Z,25.83
2018-09-05T19:23:17.402Z,21.00
2018-09-05T19:25:45.490Z,21.70
2018-09-05T19:28:13.620Z,21.57
2018-09-05T19:30:41.961Z,17.50
2018-09-05T19:33:10.022Z,18.90
2018-09-05T19:35:38.237Z,22.37
2018-09-05T19:38:06.264Z,20.20
2018-09-05T19:40:34.375Z,24.98
2018-09-05T19:43:02.488Z,19.92
2018-09-05T19:45:30.571Z,24.57
2018-09-05T19:47:58.667Z,21.48
2018-09-05T19:50:26.841Z,25.45
2018-09-05T19:52:54.918Z,20.37
2018-09-05T19:55:23.016Z,23.12
2018-09-05T19:57:51.177Z,21.50
2018-09-05T20:00:19.267Z,27.13
2018-09-05T20:02:47.360Z,19.62
2018-09-05T20:05:15.477Z,23.50
2018-09-05T20:07:43.610Z,21.35
2018-09-05T20:10:11.675Z,20.77
2018-09-05T20:12:39.738Z,21.68
2018-09-05T20:15:07.812Z,21.55
2018-09-05T20:17:35.899Z,21.65
2018-09-05T20:20:04.231Z,19.45
2018-09-05T20:22:32.299Z,25.27
2018-09-05T20:25:00.375Z,23.18
2018-09-05T20:27:28.473Z,19.07
2018-09-05T20:29:57.016Z,23.47
2018-09-05T20:32:25.323Z,23.47
2018-09-05T20:34:53.430Z,20.40
2018-09-05T20:37:21.557Z,25.82
2018-09-05T20:39:49.626Z,24.63
2018-09-05T20:42:17.723Z,24.18
2018-09-05T20:44:45.795Z,20.60
2018-09-05T20:47:13.874Z,23.15
2018-09-05T20:49:42.196Z,22.20
2018-09-05T20:52:10.341Z,22.17
2018-09-05T20:54:38.421Z,33.38
2018-09-05T20:57:06.474Z,26.57
2018-09-05T20:59:34.552Z,22.87
2018-09-05T21:02:02.623Z,30.27
2018-09-05T21:04:30.686Z,24.07
2018-09-05T21:06:59.071Z,22.82
2018-09-05T21:09:27.179Z,24.43
2018-09-05T21:11:55.242Z,21.35
2018-09-05T21:14:23.335Z,26.23
2018-09-05T21:16:51.566Z,28.10
2018-09-05T21:19:19.642Z,24.65
2018-09-05T21:21:47.732Z,23.40
2018-09-05T21:24:15.806Z,25.65
2018-09-05T21:26:43.890Z,23.22
2018-09-05T21:29:12.002Z,24.80
2018-09-05T21:31:40.160Z,29.92
2018-09-05T21:34:08.243Z,24.35
2018-09-05T21:36:36.320Z,24.92
2018-09-05T21:39:05.907Z,24.45
2018-09-05T21:41:33.923Z,26.75
2018-09-05T21:44:02.030Z,26.77
2018-09-05T21:46:30.171Z,28.38
2018-09-05T21:48:58.309Z,26.87
2018-09-05T21:51:26.629Z,25.95
2018-09-05T21:53:54.711Z,24.05
2018-09-05T21:56:22.780Z,27.27
2018-09-05T21:58:50.880Z,27.02
2018-09-05T22:01:20.001Z,27.40
2018-09-05T22:03:49.415Z,26.40
2018-09-05T22:06:17.498Z,27.73
2018-09-05T22:08:45.751Z,25.88
2018-09-05T22:11:19.367Z,22.55
2018-09-05T22:13:47.790Z,25.12
2018-09-05T22:16:15.841Z,27.40
2018-09-05T22:18:43.954Z,25.17
2018-09-05T22:21:12.068Z,27.52
2018-09-05T22:23:40.158Z,25.23
2018-09-05T22:26:08.232Z,29.05
2018-09-05T22:28:36.362Z,24.25
2018-09-05T22:31:04.434Z,25.00
2018-09-05T22:33:32.533Z,25.82
2018-09-05T22:36:00.602Z,26.90
2018-09-05T22:38:28.723Z,29.45
2018-09-05T22:40:56.806Z,32.35
2018-09-05T22:43:37.322Z,31.80
2018-09-05T22:46:16.898Z,27.48
2018-09-05T22:49:12.431Z,26.02
2018-09-05T22:54:02.723Z,27.93
2018-09-05T22:57:21.974Z,27.13
2018-09-05T23:00:03.452Z,28.35
2018-09-05T23:02:48.478Z,28.75
2018-09-05T23:05:30.866Z,28.17
2018-09-05T23:08:38.491Z,28.32
2018-09-05T23:11:18.647Z,33.63
2018-09-05T23:13:58.906Z,31.68
2018-09-05T23:16:38.788Z,27.27
2018-09-05T23:19:23.191Z,24.63
2018-09-05T23:21:51.290Z,23.77
2018-09-05T23:24:19.366Z,24.23
2018-09-05T23:26:47.449Z,27.62
2018-09-05T23:29:15.533Z,20.72
2018-09-05T23:31:43.618Z,24.52
2018-09-05T23:34:11.706Z,22.60
2018-09-05T23:36:39.787Z,24.27
2018-09-05T23:39:08.527Z,23.57
2018-09-05T23:41:36.598Z,24.12
2018-09-05T23:44:04.682Z,25.05
2018-09-05T23:46:33.000Z,29.43
2018-09-05T23:49:01.087Z,28.42
2018-09-05T23:51:30.562Z,22.80
2018-09-05T23:53:58.650Z,25.05
2018-09-05T23:56:26.758Z,20.70
2018-09-05T23:58:54.862Z,20.70
